sensor_id;sensor_type;location;lat;lon;timestamp;temperature;humidity
59855;DHT22;45732;52.850;6.896;2023-02-28T00:02:18;4.90;99.90
59855;DHT22;45732;52.850;6.896;2023-02-28T00:04:44;4.80;99.90
59855;DHT22;45732;52.850;6.896;2023-02-28T00:07:09;4.80;99.90
59855;DHT22;45732;52.850;6.896;2023-02-28T00:09:35;4.80;99.90
59855;DHT22;45732;52.850;6.896;2023-02-28T00:12:01;4.80;99.90
59855;DHT22;45732;52.850;6.896;2023-02-28T00:14:38;4.70;99.90
59855;DHT22;45732;52.850;6.896;2023-02-28T00:17:03;4.70;99.90
59855;DHT22;45732;52.850;6.896;2023-02-28T00:19:29;4.80;99.90
59855;DHT22;45732;52.850;6.896;2023-02-28T00:21:55;4.80;99.90
59855;DHT22;45732;52.850;6.896;2023-02-28T00:24:20;4.80;99.90
59855;DHT22;45732;52.850;6.896;2023-02-28T00:26:46;4.80;99.90
59855;DHT22;45732;52.850;6.896;2023-02-28T00:29:12;4.80;99.90
59855;DHT22;45732;52.850;6.896;2023-02-28T00:31:37;4.80;99.90
59855;DHT22;45732;52.850;6.896;2023-02-28T00:34:03;4.80;99.90
59855;DHT22;45732;52.850;6.896;2023-02-28T00:36:29;4.80;99.90
59855;DHT22;45732;52.850;6.896;2023-02-28T00:38:54;4.80;99.90
59855;DHT22;45732;52.850;6.896;2023-02-28T00:41:20;4.80;99.90
59855;DHT22;45732;52.850;6.896;2023-02-28T00:43:45;4.80;99.90
59855;DHT22;45732;52.850;6.896;2023-02-28T00:46:11;4.80;99.90
59855;DHT22;45732;52.850;6.896;2023-02-28T00:48:37;4.80;99.90
59855;DHT22;45732;52.850;6.896;2023-02-28T00:51:03;4.90;99.90
59855;DHT22;45732;52.850;6.896;2023-02-28T00:53:29;4.90;99.90
59855;DHT22;45732;52.850;6.896;2023-02-28T00:55:55;4.90;99.90
59855;DHT22;45732;52.850;6.896;2023-02-28T00:58:21;4.90;99.90
59855;DHT22;45732;52.850;6.896;2023-02-28T01:00:46;4.90;99.90
59855;DHT22;45732;52.850;6.896;2023-02-28T01:03:16;5.00;99.90
59855;DHT22;45732;52.850;6.896;2023-02-28T01:05:42;4.90;99.90
59855;DHT22;45732;52.850;6.896;2023-02-28T01:08:07;4.90;99.90
59855;DHT22;45732;52.850;6.896;2023-02-28T01:10:33;4.90;99.90
59855;DHT22;45732;52.850;6.896;2023-02-28T01:12:59;4.90;99.90
59855;DHT22;45732;52.850;6.896;2023-02-28T01:15:25;4.90;99.90
59855;DHT22;45732;52.850;6.896;2023-02-28T01:17:50;4.90;99.90
59855;DHT22;45732;52.850;6.896;2023-02-28T01:20:16;4.90;99.90
59855;DHT22;45732;52.850;6.896;2023-02-28T01:22:42;4.90;99.90
59855;DHT22;45732;52.850;6.896;2023-02-28T01:25:08;4.90;99.90
59855;DHT22;45732;52.850;6.896;2023-02-28T01:27:33;4.90;99.90
59855;DHT22;45732;52.850;6.896;2023-02-28T01:29:59;4.80;99.90
59855;DHT22;45732;52.850;6.896;2023-02-28T01:32:25;4.80;99.90
59855;DHT22;45732;52.850;6.896;2023-02-28T01:34:50;4.80;99.90
59855;DHT22;45732;52.850;6.896;2023-02-28T01:37:16;4.80;99.90
59855;DHT22;45732;52.850;6.896;2023-02-28T01:39:42;4.80;99.90
59855;DHT22;45732;52.850;6.896;2023-02-28T01:42:09;4.80;99.90
59855;DHT22;45732;52.850;6.896;2023-02-28T01:44:55;4.80;99.90
59855;DHT22;45732;52.850;6.896;2023-02-28T01:47:22;4.80;99.90
59855;DHT22;45732;52.850;6.896;2023-02-28T01:49:49;4.90;99.90
59855;DHT22;45732;52.850;6.896;2023-02-28T01:52:17;4.80;99.90
59855;DHT22;45732;52.850;6.896;2023-02-28T01:54:46;4.90;99.90
59855;DHT22;45732;52.850;6.896;2023-02-28T01:57:18;4.80;99.90
59855;DHT22;45732;52.850;6.896;2023-02-28T01:59:56;4.90;99.90
59855;DHT22;45732;52.850;6.896;2023-02-28T02:02:25;4.80;99.90
59855;DHT22;45732;52.850;6.896;2023-02-28T02:05:10;4.80;99.90
59855;DHT22;45732;52.850;6.896;2023-02-28T02:07:38;4.90;99.90
59855;DHT22;45732;52.850;6.896;2023-02-28T02:15:13;4.80;99.90
59855;DHT22;45732;52.850;6.896;2023-02-28T02:17:46;4.80;99.90
59855;DHT22;45732;52.850;6.896;2023-02-28T02:25:19;4.70;99.90
59855;DHT22;45732;52.850;6.896;2023-02-28T02:38:36;4.60;99.90
59855;DHT22;45732;52.850;6.896;2023-02-28T02:41:39;4.70;99.90
59855;DHT22;45732;52.850;6.896;2023-02-28T02:46:44;4.70;99.90
59855;DHT22;45732;52.850;6.896;2023-02-28T02:49:16;4.70;99.90
59855;DHT22;45732;52.850;6.896;2023-02-28T02:51:46;4.70;99.90
59855;DHT22;45732;52.850;6.896;2023-02-28T02:54:34;4.60;99.90
59855;DHT22;45732;52.850;6.896;2023-02-28T02:57:04;4.60;99.90
59855;DHT22;45732;52.850;6.896;2023-02-28T02:59:32;4.60;99.90
59855;DHT22;45732;52.850;6.896;2023-02-28T03:02:04;4.60;99.90
59855;DHT22;45732;52.850;6.896;2023-02-28T03:04:36;4.60;99.90
59855;DHT22;45732;52.850;6.896;2023-02-28T03:07:03;4.60;99.90
59855;DHT22;45732;52.850;6.896;2023-02-28T03:09:33;4.60;99.90
59855;DHT22;45732;52.850;6.896;2023-02-28T03:12:02;4.60;99.90
59855;DHT22;45732;52.850;6.896;2023-02-28T03:25:09;4.50;99.90
59855;DHT22;45732;52.850;6.896;2023-02-28T03:28:00;4.50;99.90
59855;DHT22;45732;52.850;6.896;2023-02-28T03:30:51;4.50;99.90
59855;DHT22;45732;52.850;6.896;2023-02-28T03:36:32;4.50;99.90
59855;DHT22;45732;52.850;6.896;2023-02-28T03:39:00;4.50;99.90
59855;DHT22;45732;52.850;6.896;2023-02-28T03:41:50;4.50;99.90
59855;DHT22;45732;52.850;6.896;2023-02-28T03:47:02;4.50;99.90
59855;DHT22;45732;52.850;6.896;2023-02-28T03:50:17;4.50;99.90
59855;DHT22;45732;52.850;6.896;2023-02-28T03:52:38;4.50;99.90
59855;DHT22;45732;52.850;6.896;2023-02-28T03:55:10;4.40;99.90
59855;DHT22;45732;52.850;6.896;2023-02-28T03:57:38;4.40;99.90
59855;DHT22;45732;52.850;6.896;2023-02-28T04:00:25;4.40;99.90
59855;DHT22;45732;52.850;6.896;2023-02-28T04:02:54;4.40;99.90
59855;DHT22;45732;52.850;6.896;2023-02-28T04:05:21;4.50;99.90
59855;DHT22;45732;52.850;6.896;2023-02-28T04:07:47;4.50;99.90
59855;DHT22;45732;52.850;6.896;2023-02-28T04:10:15;4.50;99.90
59855;DHT22;45732;52.850;6.896;2023-02-28T04:12:41;4.50;99.90
59855;DHT22;45732;52.850;6.896;2023-02-28T04:15:07;4.50;99.90
59855;DHT22;45732;52.850;6.896;2023-02-28T04:17:33;4.50;99.90
59855;DHT22;45732;52.850;6.896;2023-02-28T04:19:58;4.40;99.90
59855;DHT22;45732;52.850;6.896;2023-02-28T04:22:24;4.40;99.90
59855;DHT22;45732;52.850;6.896;2023-02-28T04:24:53;4.50;99.90
59855;DHT22;45732;52.850;6.896;2023-02-28T04:27:20;4.50;99.90
59855;DHT22;45732;52.850;6.896;2023-02-28T04:29:46;4.50;99.90
59855;DHT22;45732;52.850;6.896;2023-02-28T04:32:12;4.50;99.90
59855;DHT22;45732;52.850;6.896;2023-02-28T04:34:38;4.40;99.90
59855;DHT22;45732;52.850;6.896;2023-02-28T04:37:04;4.50;99.90
59855;DHT22;45732;52.850;6.896;2023-02-28T04:39:29;4.50;99.90
59855;DHT22;45732;52.850;6.896;2023-02-28T04:41:55;4.50;99.90
59855;DHT22;45732;52.850;6.896;2023-02-28T04:44:22;4.40;99.90
59855;DHT22;45732;52.850;6.896;2023-02-28T04:46:48;4.50;99.90
59855;DHT22;45732;52.850;6.896;2023-02-28T04:49:14;4.50;99.90
59855;DHT22;45732;52.850;6.896;2023-02-28T04:51:41;4.50;99.90
59855;DHT22;45732;52.850;6.896;2023-02-28T04:54:07;4.40;99.90
59855;DHT22;45732;52.850;6.896;2023-02-28T04:56:33;4.40;99.90
59855;DHT22;45732;52.850;6.896;2023-02-28T04:58:59;4.40;99.90
59855;DHT22;45732;52.850;6.896;2023-02-28T05:01:27;4.30;99.90
59855;DHT22;45732;52.850;6.896;2023-02-28T05:03:55;4.30;99.90
59855;DHT22;45732;52.850;6.896;2023-02-28T05:06:23;4.40;99.90
59855;DHT22;45732;52.850;6.896;2023-02-28T05:08:49;4.40;99.90
59855;DHT22;45732;52.850;6.896;2023-02-28T05:11:18;4.40;99.90
59855;DHT22;45732;52.850;6.896;2023-02-28T05:13:45;4.40;99.90
59855;DHT22;45732;52.850;6.896;2023-02-28T05:16:11;4.40;99.90
59855;DHT22;45732;52.850;6.896;2023-02-28T05:18:37;4.40;99.90
59855;DHT22;45732;52.850;6.896;2023-02-28T05:21:03;4.40;99.90
59855;DHT22;45732;52.850;6.896;2023-02-28T05:23:29;4.30;99.90
59855;DHT22;45732;52.850;6.896;2023-02-28T05:25:54;4.30;99.90
59855;DHT22;45732;52.850;6.896;2023-02-28T05:28:20;4.30;99.90
59855;DHT22;45732;52.850;6.896;2023-02-28T05:30:46;4.20;99.90
59855;DHT22;45732;52.850;6.896;2023-02-28T05:33:13;4.20;99.90
59855;DHT22;45732;52.850;6.896;2023-02-28T05:35:40;4.20;99.90
59855;DHT22;45732;52.850;6.896;2023-02-28T05:38:06;4.20;99.90
59855;DHT22;45732;52.850;6.896;2023-02-28T05:40:31;4.20;99.90
59855;DHT22;45732;52.850;6.896;2023-02-28T05:42:57;4.20;99.90
59855;DHT22;45732;52.850;6.896;2023-02-28T05:45:22;4.20;99.90
59855;DHT22;45732;52.850;6.896;2023-02-28T05:47:48;4.10;99.90
59855;DHT22;45732;52.850;6.896;2023-02-28T05:50:14;4.20;99.90
59855;DHT22;45732;52.850;6.896;2023-02-28T05:52:40;4.10;99.90
59855;DHT22;45732;52.850;6.896;2023-02-28T05:55:06;4.20;99.90
59855;DHT22;45732;52.850;6.896;2023-02-28T05:57:32;4.20;99.90
59855;DHT22;45732;52.850;6.896;2023-02-28T05:59:57;4.20;99.90
59855;DHT22;45732;52.850;6.896;2023-02-28T06:02:23;4.20;99.90
59855;DHT22;45732;52.850;6.896;2023-02-28T06:04:49;4.30;99.90
59855;DHT22;45732;52.850;6.896;2023-02-28T06:07:14;4.20;99.90
59855;DHT22;45732;52.850;6.896;2023-02-28T06:09:40;4.20;99.90
59855;DHT22;45732;52.850;6.896;2023-02-28T06:12:07;4.20;99.90
59855;DHT22;45732;52.850;6.896;2023-02-28T06:14:35;4.20;99.90
59855;DHT22;45732;52.850;6.896;2023-02-28T06:17:02;4.20;99.90
59855;DHT22;45732;52.850;6.896;2023-02-28T06:19:28;4.20;99.90
59855;DHT22;45732;52.850;6.896;2023-02-28T06:21:56;4.20;99.90
59855;DHT22;45732;52.850;6.896;2023-02-28T06:24:23;4.20;99.90
59855;DHT22;45732;52.850;6.896;2023-02-28T06:26:50;4.20;99.90
59855;DHT22;45732;52.850;6.896;2023-02-28T06:29:16;4.30;99.90
59855;DHT22;45732;52.850;6.896;2023-02-28T06:31:47;4.30;99.90
59855;DHT22;45732;52.850;6.896;2023-02-28T06:34:13;4.20;99.90
59855;DHT22;45732;52.850;6.896;2023-02-28T06:36:41;4.20;99.90
59855;DHT22;45732;52.850;6.896;2023-02-28T06:39:07;4.20;99.90
59855;DHT22;45732;52.850;6.896;2023-02-28T06:41:33;4.20;99.90
59855;DHT22;45732;52.850;6.896;2023-02-28T06:44:04;4.20;99.90
59855;DHT22;45732;52.850;6.896;2023-02-28T06:46:31;4.20;99.90
59855;DHT22;45732;52.850;6.896;2023-02-28T06:48:57;4.20;99.90
59855;DHT22;45732;52.850;6.896;2023-02-28T06:51:23;4.20;99.90
59855;DHT22;45732;52.850;6.896;2023-02-28T06:53:50;4.10;99.90
59855;DHT22;45732;52.850;6.896;2023-02-28T06:56:16;4.20;99.90
59855;DHT22;45732;52.850;6.896;2023-02-28T06:58:47;4.30;99.90
59855;DHT22;45732;52.850;6.896;2023-02-28T07:01:14;4.30;99.90
59855;DHT22;45732;52.850;6.896;2023-02-28T07:03:40;4.30;99.90
59855;DHT22;45732;52.850;6.896;2023-02-28T07:06:06;4.40;99.90
59855;DHT22;45732;52.850;6.896;2023-02-28T07:08:33;4.30;99.90
59855;DHT22;45732;52.850;6.896;2023-02-28T07:10:58;4.40;99.90
59855;DHT22;45732;52.850;6.896;2023-02-28T07:13:24;4.40;99.90
59855;DHT22;45732;52.850;6.896;2023-02-28T07:15:58;4.40;99.90
59855;DHT22;45732;52.850;6.896;2023-02-28T07:18:24;4.50;99.90
59855;DHT22;45732;52.850;6.896;2023-02-28T07:20:50;4.50;99.90
59855;DHT22;45732;52.850;6.896;2023-02-28T07:23:16;4.60;99.90
59855;DHT22;45732;52.850;6.896;2023-02-28T07:25:42;4.60;99.90
59855;DHT22;45732;52.850;6.896;2023-02-28T07:28:08;4.60;99.90
59855;DHT22;45732;52.850;6.896;2023-02-28T07:30:34;4.60;99.90
59855;DHT22;45732;52.850;6.896;2023-02-28T07:32:59;4.60;99.90
59855;DHT22;45732;52.850;6.896;2023-02-28T07:35:25;4.60;99.90
59855;DHT22;45732;52.850;6.896;2023-02-28T07:37:50;4.60;99.90
59855;DHT22;45732;52.850;6.896;2023-02-28T07:40:17;4.60;99.90
59855;DHT22;45732;52.850;6.896;2023-02-28T07:42:43;4.60;99.90
59855;DHT22;45732;52.850;6.896;2023-02-28T07:45:10;4.60;99.90
59855;DHT22;45732;52.850;6.896;2023-02-28T07:47:41;4.60;99.90
59855;DHT22;45732;52.850;6.896;2023-02-28T07:50:08;4.50;99.90
59855;DHT22;45732;52.850;6.896;2023-02-28T07:52:36;4.50;99.90
59855;DHT22;45732;52.850;6.896;2023-02-28T07:55:03;4.50;99.90
59855;DHT22;45732;52.850;6.896;2023-02-28T07:57:30;4.40;99.90
59855;DHT22;45732;52.850;6.896;2023-02-28T07:59:55;4.40;99.90
59855;DHT22;45732;52.850;6.896;2023-02-28T08:02:21;4.30;99.90
59855;DHT22;45732;52.850;6.896;2023-02-28T08:04:47;4.40;99.90
59855;DHT22;45732;52.850;6.896;2023-02-28T08:07:14;4.30;99.90
59855;DHT22;45732;52.850;6.896;2023-02-28T08:09:41;4.30;99.90
59855;DHT22;45732;52.850;6.896;2023-02-28T08:12:08;4.20;99.90
59855;DHT22;45732;52.850;6.896;2023-02-28T08:14:34;4.20;99.90
59855;DHT22;45732;52.850;6.896;2023-02-28T08:17:00;4.20;99.90
59855;DHT22;45732;52.850;6.896;2023-02-28T08:19:26;4.20;99.90
59855;DHT22;45732;52.850;6.896;2023-02-28T08:21:51;4.30;99.90
59855;DHT22;45732;52.850;6.896;2023-02-28T08:24:17;4.40;99.90
59855;DHT22;45732;52.850;6.896;2023-02-28T08:26:44;4.50;99.90
59855;DHT22;45732;52.850;6.896;2023-02-28T08:29:09;4.60;99.90
59855;DHT22;45732;52.850;6.896;2023-02-28T08:31:35;4.60;99.90
59855;DHT22;45732;52.850;6.896;2023-02-28T08:34:08;4.60;99.90
59855;DHT22;45732;52.850;6.896;2023-02-28T08:36:34;4.70;99.90
59855;DHT22;45732;52.850;6.896;2023-02-28T08:39:00;4.70;99.90
59855;DHT22;45732;52.850;6.896;2023-02-28T08:41:26;4.70;99.90
59855;DHT22;45732;52.850;6.896;2023-02-28T08:43:52;4.70;99.90
59855;DHT22;45732;52.850;6.896;2023-02-28T08:46:19;4.80;99.90
59855;DHT22;45732;52.850;6.896;2023-02-28T08:48:46;4.90;99.90
59855;DHT22;45732;52.850;6.896;2023-02-28T08:51:14;4.80;99.90
59855;DHT22;45732;52.850;6.896;2023-02-28T08:53:44;4.90;99.90
59855;DHT22;45732;52.850;6.896;2023-02-28T08:56:15;4.90;99.90
59855;DHT22;45732;52.850;6.896;2023-02-28T08:58:42;5.00;99.90
59855;DHT22;45732;52.850;6.896;2023-02-28T09:01:09;5.00;99.90
59855;DHT22;45732;52.850;6.896;2023-02-28T09:03:35;5.10;99.90
59855;DHT22;45732;52.850;6.896;2023-02-28T09:06:02;5.10;99.90
59855;DHT22;45732;52.850;6.896;2023-02-28T09:08:29;5.20;99.90
59855;DHT22;45732;52.850;6.896;2023-02-28T09:10:55;5.30;99.90
59855;DHT22;45732;52.850;6.896;2023-02-28T09:13:23;5.50;99.90
59855;DHT22;45732;52.850;6.896;2023-02-28T09:15:49;5.50;99.90
59855;DHT22;45732;52.850;6.896;2023-02-28T09:18:15;5.50;99.90
59855;DHT22;45732;52.850;6.896;2023-02-28T09:20:42;5.60;99.90
59855;DHT22;45732;52.850;6.896;2023-02-28T09:23:09;5.60;99.90
59855;DHT22;45732;52.850;6.896;2023-02-28T09:25:36;5.60;99.90
59855;DHT22;45732;52.850;6.896;2023-02-28T09:28:02;5.70;99.90
59855;DHT22;45732;52.850;6.896;2023-02-28T09:30:29;5.70;99.90
59855;DHT22;45732;52.850;6.896;2023-02-28T09:32:55;5.80;99.90
59855;DHT22;45732;52.850;6.896;2023-02-28T09:35:22;5.80;99.90
59855;DHT22;45732;52.850;6.896;2023-02-28T09:37:52;5.90;99.90
59855;DHT22;45732;52.850;6.896;2023-02-28T09:40:20;6.10;99.90
59855;DHT22;45732;52.850;6.896;2023-02-28T09:42:48;6.10;99.90
59855;DHT22;45732;52.850;6.896;2023-02-28T09:45:36;6.20;99.90
59855;DHT22;45732;52.850;6.896;2023-02-28T09:48:24;6.30;99.90
59855;DHT22;45732;52.850;6.896;2023-02-28T09:50:59;6.30;99.90
59855;DHT22;45732;52.850;6.896;2023-02-28T09:53:31;6.20;99.90
59855;DHT22;45732;52.850;6.896;2023-02-28T09:56:07;6.20;99.90
59855;DHT22;45732;52.850;6.896;2023-02-28T09:59:06;6.30;99.90
59855;DHT22;45732;52.850;6.896;2023-02-28T10:01:54;6.30;99.90
59855;DHT22;45732;52.850;6.896;2023-02-28T10:04:46;6.40;99.90
59855;DHT22;45732;52.850;6.896;2023-02-28T10:10:04;6.60;99.90
59855;DHT22;45732;52.850;6.896;2023-02-28T10:12:33;6.70;99.90
59855;DHT22;45732;52.850;6.896;2023-02-28T10:15:01;6.70;99.90
59855;DHT22;45732;52.850;6.896;2023-02-28T10:17:38;6.80;99.90
59855;DHT22;45732;52.850;6.896;2023-02-28T10:20:19;6.80;99.90
59855;DHT22;45732;52.850;6.896;2023-02-28T10:25:34;6.80;99.90
59855;DHT22;45732;52.850;6.896;2023-02-28T10:28:15;6.80;99.90
59855;DHT22;45732;52.850;6.896;2023-02-28T10:30:52;6.80;99.90
59855;DHT22;45732;52.850;6.896;2023-02-28T10:33:33;6.80;99.90
59855;DHT22;45732;52.850;6.896;2023-02-28T10:36:03;6.80;99.90
59855;DHT22;45732;52.850;6.896;2023-02-28T10:38:35;6.80;99.90
59855;DHT22;45732;52.850;6.896;2023-02-28T10:41:10;7.00;99.90
59855;DHT22;45732;52.850;6.896;2023-02-28T10:43:38;7.00;99.90
59855;DHT22;45732;52.850;6.896;2023-02-28T10:46:12;7.00;99.90
59855;DHT22;45732;52.850;6.896;2023-02-28T10:49:06;7.20;99.90
59855;DHT22;45732;52.850;6.896;2023-02-28T10:51:39;7.10;99.90
59855;DHT22;45732;52.850;6.896;2023-02-28T10:54:05;7.10;99.90
59855;DHT22;45732;52.850;6.896;2023-02-28T10:56:31;7.20;99.90
59855;DHT22;45732;52.850;6.896;2023-02-28T10:59:08;7.30;99.90
59855;DHT22;45732;52.850;6.896;2023-02-28T11:01:46;7.20;99.90
59855;DHT22;45732;52.850;6.896;2023-02-28T11:04:33;7.20;99.90
59855;DHT22;45732;52.850;6.896;2023-02-28T11:07:23;7.30;99.90
59855;DHT22;45732;52.850;6.896;2023-02-28T11:09:55;7.40;99.90
59855;DHT22;45732;52.850;6.896;2023-02-28T11:12:41;7.50;99.90
59855;DHT22;45732;52.850;6.896;2023-02-28T11:15:28;7.60;99.90
59855;DHT22;45732;52.850;6.896;2023-02-28T11:20:52;7.50;99.90
59855;DHT22;45732;52.850;6.896;2023-02-28T11:23:19;7.40;99.90
59855;DHT22;45732;52.850;6.896;2023-02-28T11:25:56;7.50;99.90
59855;DHT22;45732;52.850;6.896;2023-02-28T11:28:40;7.40;99.90
59855;DHT22;45732;52.850;6.896;2023-02-28T11:36:33;7.30;99.90
59855;DHT22;45732;52.850;6.896;2023-02-28T11:39:01;7.30;99.90
59855;DHT22;45732;52.850;6.896;2023-02-28T11:47:26;7.20;99.90
59855;DHT22;45732;52.850;6.896;2023-02-28T11:55:36;7.10;99.90
59855;DHT22;45732;52.850;6.896;2023-02-28T12:06:57;7.20;99.90
59855;DHT22;45732;52.850;6.896;2023-02-28T12:22:31;7.10;99.90
59855;DHT22;45732;52.850;6.896;2023-02-28T12:27:38;7.20;99.90
59855;DHT22;45732;52.850;6.896;2023-02-28T12:30:06;7.30;99.90
59855;DHT22;45732;52.850;6.896;2023-02-28T12:32:46;7.30;99.90
59855;DHT22;45732;52.850;6.896;2023-02-28T12:35:16;7.20;99.90
59855;DHT22;45732;52.850;6.896;2023-02-28T12:38:36;7.30;99.90
59855;DHT22;45732;52.850;6.896;2023-02-28T12:43:34;7.30;99.90
59855;DHT22;45732;52.850;6.896;2023-02-28T12:46:29;7.30;99.90
59855;DHT22;45732;52.850;6.896;2023-02-28T12:48:57;7.30;99.90
59855;DHT22;45732;52.850;6.896;2023-02-28T12:51:25;7.20;99.90
59855;DHT22;45732;52.850;6.896;2023-02-28T12:59:27;7.40;99.90
59855;DHT22;45732;52.850;6.896;2023-02-28T13:02:09;7.50;99.90
59855;DHT22;45732;52.850;6.896;2023-02-28T13:04:42;7.50;99.90
59855;DHT22;45732;52.850;6.896;2023-02-28T13:10:00;7.50;99.90
59855;DHT22;45732;52.850;6.896;2023-02-28T13:12:28;7.60;99.90
59855;DHT22;45732;52.850;6.896;2023-02-28T13:17:49;7.40;99.90
59855;DHT22;45732;52.850;6.896;2023-02-28T13:20:26;7.50;99.90
59855;DHT22;45732;52.850;6.896;2023-02-28T13:22:55;7.50;99.90
59855;DHT22;45732;52.850;6.896;2023-02-28T13:27:51;7.50;99.90
59855;DHT22;45732;52.850;6.896;2023-02-28T13:38:47;7.60;99.90
59855;DHT22;45732;52.850;6.896;2023-02-28T13:51:50;7.80;99.90
59855;DHT22;45732;52.850;6.896;2023-02-28T14:03:26;7.80;99.90
59855;DHT22;45732;52.850;6.896;2023-02-28T14:06:16;7.90;99.90
59855;DHT22;45732;52.850;6.896;2023-02-28T14:11:38;8.00;99.90
59855;DHT22;45732;52.850;6.896;2023-02-28T14:14:06;8.00;99.90
59855;DHT22;45732;52.850;6.896;2023-02-28T14:16:44;7.90;99.90
59855;DHT22;45732;52.850;6.896;2023-02-28T14:19:22;8.00;99.90
59855;DHT22;45732;52.850;6.896;2023-02-28T14:24:51;8.00;99.90
59855;DHT22;45732;52.850;6.896;2023-02-28T14:27:48;8.20;99.90
59855;DHT22;45732;52.850;6.896;2023-02-28T14:36:20;8.20;99.90
59855;DHT22;45732;52.850;6.896;2023-02-28T14:38:53;8.10;99.90
59855;DHT22;45732;52.850;6.896;2023-02-28T14:41:36;8.20;99.90
59855;DHT22;45732;52.850;6.896;2023-02-28T14:46:43;8.20;99.90
59855;DHT22;45732;52.850;6.896;2023-02-28T14:52:23;8.30;99.90
59855;DHT22;45732;52.850;6.896;2023-02-28T14:54:54;8.30;99.90
59855;DHT22;45732;52.850;6.896;2023-02-28T14:57:38;8.30;99.90
59855;DHT22;45732;52.850;6.896;2023-02-28T15:02:42;8.30;99.90
59855;DHT22;45732;52.850;6.896;2023-02-28T15:05:29;8.30;99.90
59855;DHT22;45732;52.850;6.896;2023-02-28T15:08:11;8.30;99.90
59855;DHT22;45732;52.850;6.896;2023-02-28T15:10:40;8.20;99.90
59855;DHT22;45732;52.850;6.896;2023-02-28T15:13:12;8.30;99.90
59855;DHT22;45732;52.850;6.896;2023-02-28T15:15:55;8.30;99.90
59855;DHT22;45732;52.850;6.896;2023-02-28T15:21:23;8.10;99.90
59855;DHT22;45732;52.850;6.896;2023-02-28T15:24:17;8.20;99.90
59855;DHT22;45732;52.850;6.896;2023-02-28T15:27:39;8.10;99.90
59855;DHT22;45732;52.850;6.896;2023-02-28T15:29:50;8.10;99.90
59855;DHT22;45732;52.850;6.896;2023-02-28T15:34:52;8.00;99.90
59855;DHT22;45732;52.850;6.896;2023-02-28T15:40:03;7.90;99.90
59855;DHT22;45732;52.850;6.896;2023-02-28T15:42:30;7.90;99.90
59855;DHT22;45732;52.850;6.896;2023-02-28T15:44:57;7.80;99.90
59855;DHT22;45732;52.850;6.896;2023-02-28T15:47:27;7.80;99.90
59855;DHT22;45732;52.850;6.896;2023-02-28T15:50:00;7.70;99.90
59855;DHT22;45732;52.850;6.896;2023-02-28T15:52:41;7.70;99.90
59855;DHT22;45732;52.850;6.896;2023-02-28T15:55:20;7.70;99.90
59855;DHT22;45732;52.850;6.896;2023-02-28T15:57:50;7.70;99.90
59855;DHT22;45732;52.850;6.896;2023-02-28T16:00:20;7.70;99.90
59855;DHT22;45732;52.850;6.896;2023-02-28T16:02:47;7.80;99.90
59855;DHT22;45732;52.850;6.896;2023-02-28T16:05:30;7.70;99.90
59855;DHT22;45732;52.850;6.896;2023-02-28T16:08:14;7.90;99.90
59855;DHT22;45732;52.850;6.896;2023-02-28T16:10:40;8.00;99.90
59855;DHT22;45732;52.850;6.896;2023-02-28T16:13:08;7.90;99.90
59855;DHT22;45732;52.850;6.896;2023-02-28T16:15:41;7.90;99.90
59855;DHT22;45732;52.850;6.896;2023-02-28T16:18:10;7.80;99.90
59855;DHT22;45732;52.850;6.896;2023-02-28T16:20:37;7.80;99.90
59855;DHT22;45732;52.850;6.896;2023-02-28T16:23:03;7.70;99.90
59855;DHT22;45732;52.850;6.896;2023-02-28T16:25:37;7.70;99.90
59855;DHT22;45732;52.850;6.896;2023-02-28T16:28:05;7.50;99.90
59855;DHT22;45732;52.850;6.896;2023-02-28T16:30:33;7.50;99.90
59855;DHT22;45732;52.850;6.896;2023-02-28T16:32:59;7.40;99.90
59855;DHT22;45732;52.850;6.896;2023-02-28T16:35:25;7.30;99.90
59855;DHT22;45732;52.850;6.896;2023-02-28T16:37:51;7.10;99.90
59855;DHT22;45732;52.850;6.896;2023-02-28T16:40:25;7.10;99.90
59855;DHT22;45732;52.850;6.896;2023-02-28T16:42:53;7.00;99.90
59855;DHT22;45732;52.850;6.896;2023-02-28T16:45:22;6.80;99.90
59855;DHT22;45732;52.850;6.896;2023-02-28T16:47:48;6.80;99.90
59855;DHT22;45732;52.850;6.896;2023-02-28T16:50:27;6.70;99.90
59855;DHT22;45732;52.850;6.896;2023-02-28T16:52:53;6.60;99.90
59855;DHT22;45732;52.850;6.896;2023-02-28T16:55:20;6.50;99.90
59855;DHT22;45732;52.850;6.896;2023-02-28T16:57:54;6.40;99.90
59855;DHT22;45732;52.850;6.896;2023-02-28T17:00:20;6.40;99.90
59855;DHT22;45732;52.850;6.896;2023-02-28T17:02:46;6.30;99.90
59855;DHT22;45732;52.850;6.896;2023-02-28T17:05:13;6.20;99.90
59855;DHT22;45732;52.850;6.896;2023-02-28T17:07:41;6.20;99.90
59855;DHT22;45732;52.850;6.896;2023-02-28T17:10:22;6.10;99.90
59855;DHT22;45732;52.850;6.896;2023-02-28T17:12:49;6.10;99.90
59855;DHT22;45732;52.850;6.896;2023-02-28T17:15:16;6.00;99.90
59855;DHT22;45732;52.850;6.896;2023-02-28T17:17:43;6.00;99.90
59855;DHT22;45732;52.850;6.896;2023-02-28T17:20:17;5.90;99.90
59855;DHT22;45732;52.850;6.896;2023-02-28T17:22:44;5.90;99.90
59855;DHT22;45732;52.850;6.896;2023-02-28T17:25:10;5.90;99.90
59855;DHT22;45732;52.850;6.896;2023-02-28T17:27:37;5.90;99.90
59855;DHT22;45732;52.850;6.896;2023-02-28T17:32:41;5.70;99.90
59855;DHT22;45732;52.850;6.896;2023-02-28T17:35:07;5.70;99.90
59855;DHT22;45732;52.850;6.896;2023-02-28T17:37:33;5.60;99.90
59855;DHT22;45732;52.850;6.896;2023-02-28T17:39:59;5.60;99.90
59855;DHT22;45732;52.850;6.896;2023-02-28T17:42:24;5.50;99.90
59855;DHT22;45732;52.850;6.896;2023-02-28T17:44:50;5.50;99.90
59855;DHT22;45732;52.850;6.896;2023-02-28T17:47:16;5.40;99.90
59855;DHT22;45732;52.850;6.896;2023-02-28T17:49:42;5.20;99.90
59855;DHT22;45732;52.850;6.896;2023-02-28T17:52:08;5.10;99.90
59855;DHT22;45732;52.850;6.896;2023-02-28T17:54:34;5.00;99.90
59855;DHT22;45732;52.850;6.896;2023-02-28T17:56:59;4.90;99.90
59855;DHT22;45732;52.850;6.896;2023-02-28T17:59:25;4.90;99.90
59855;DHT22;45732;52.850;6.896;2023-02-28T18:01:59;4.80;99.90
59855;DHT22;45732;52.850;6.896;2023-02-28T18:04:24;4.80;99.90
59855;DHT22;45732;52.850;6.896;2023-02-28T18:06:53;4.70;99.90
59855;DHT22;45732;52.850;6.896;2023-02-28T18:09:22;4.70;99.90
59855;DHT22;45732;52.850;6.896;2023-02-28T18:11:49;4.60;99.90
59855;DHT22;45732;52.850;6.896;2023-02-28T18:14:16;4.60;99.90
59855;DHT22;45732;52.850;6.896;2023-02-28T18:16:42;4.60;99.90
59855;DHT22;45732;52.850;6.896;2023-02-28T18:19:08;4.60;99.90
59855;DHT22;45732;52.850;6.896;2023-02-28T18:21:50;4.60;99.90
59855;DHT22;45732;52.850;6.896;2023-02-28T18:24:18;4.50;99.90
59855;DHT22;45732;52.850;6.896;2023-02-28T18:26:44;4.50;99.90
59855;DHT22;45732;52.850;6.896;2023-02-28T18:29:19;4.40;99.90
59855;DHT22;45732;52.850;6.896;2023-02-28T18:31:46;4.50;99.90
59855;DHT22;45732;52.850;6.896;2023-02-28T18:34:13;4.40;99.90
59855;DHT22;45732;52.850;6.896;2023-02-28T18:36:39;4.50;99.90
59855;DHT22;45732;52.850;6.896;2023-02-28T18:39:07;4.50;99.90
59855;DHT22;45732;52.850;6.896;2023-02-28T18:41:33;4.40;99.90
59855;DHT22;45732;52.850;6.896;2023-02-28T18:44:00;4.30;99.90
59855;DHT22;45732;52.850;6.896;2023-02-28T18:46:27;4.30;99.90
59855;DHT22;45732;52.850;6.896;2023-02-28T18:48:52;4.20;99.90